createdAt,value
2022-10-31T00:04:30.430Z,1.63
2022-10-31T00:09:53.578Z,2.70
2022-10-31T00:15:18.024Z,2.07
2022-10-31T00:20:41.250Z,1.73
2022-10-31T00:26:05.965Z,2.27
2022-10-31T00:31:30.790Z,1.77
2022-10-31T00:36:53.842Z,1.73
2022-10-31T00:42:16.938Z,2.03
2022-10-31T00:47:42.943Z,2.00
2022-10-31T00:53:06.035Z,1.77
2022-10-31T00:58:29.160Z,1.67
2022-10-31T01:03:53.632Z,2.07
2022-10-31T01:09:16.743Z,1.27
2022-10-31T01:14:39.833Z,2.37
2022-10-31T01:20:05.477Z,2.67
2022-10-31T01:25:28.571Z,1.97
2022-10-31T01:30:51.611Z,2.27
2022-10-31T01:36:19.092Z,2.33
2022-10-31T01:41:44.195Z,1.60
2022-10-31T01:47:09.021Z,2.67
2022-10-31T01:52:35.488Z,2.33
2022-10-31T01:58:02.367Z,2.40
2022-10-31T02:03:26.028Z,2.70
2022-10-31T02:08:50.410Z,2.80
2022-10-31T02:14:13.535Z,2.50
2022-10-31T02:19:42.577Z,2.23
2022-10-31T02:25:25.091Z,2.23
2022-10-31T02:31:05.265Z,2.37
2022-10-31T02:36:31.464Z,2.83
2022-10-31T02:42:03.956Z,2.90
2022-10-31T02:47:31.165Z,3.07
2022-10-31T02:52:54.764Z,2.30
2022-10-31T02:58:24.049Z,2.57
2022-10-31T03:04:03.442Z,2.83
2022-10-31T03:09:29.866Z,2.63
2022-10-31T03:14:56.145Z,3.30
2022-10-31T03:20:22.370Z,3.27
2022-10-31T03:25:46.100Z,2.37
2022-10-31T03:31:09.985Z,3.40
2022-10-31T03:36:39.791Z,3.80
2022-10-31T03:42:07.329Z,2.13
2022-10-31T03:47:31.032Z,3.50
2022-10-31T03:52:57.585Z,3.90
2022-10-31T03:58:24.041Z,3.50
2022-10-31T04:03:47.638Z,3.53
2022-10-31T04:09:12.882Z,4.03
2022-10-31T04:14:40.530Z,4.23
2022-10-31T04:20:04.878Z,5.50
2022-10-31T04:25:29.622Z,4.97
2022-10-31T04:30:53.161Z,5.00
2022-10-31T04:36:16.260Z,5.10
2022-10-31T04:41:40.862Z,5.47
2022-10-31T04:47:12.849Z,5.60
2022-10-31T04:52:41.143Z,5.27
2022-10-31T04:58:06.698Z,4.73
2022-10-31T05:03:30.155Z,5.67
2022-10-31T05:08:53.528Z,5.10
2022-10-31T05:14:18.162Z,6.23
2022-10-31T05:20:07.806Z,6.87
2022-10-31T05:25:51.107Z,8.10
2022-10-31T05:31:15.805Z,7.10
2022-10-31T05:36:39.141Z,8.00
2022-10-31T05:42:18.467Z,7.80
2022-10-31T05:47:42.945Z,8.43
2022-10-31T05:53:24.775Z,9.67
2022-10-31T05:58:47.979Z,9.60
2022-10-31T06:04:12.529Z,11.13
2022-10-31T06:09:35.691Z,10.53
2022-10-31T06:14:58.921Z,11.90
2022-10-31T06:20:23.423Z,11.60
2022-10-31T06:25:57.858Z,11.97
2022-10-31T06:31:20.936Z,12.37
2022-10-31T06:36:45.450Z,11.87
2022-10-31T06:42:09.339Z,11.80
2022-10-31T06:47:35.316Z,12.93
2022-10-31T06:58:38.227Z,14.13
2022-10-31T07:04:03.987Z,11.53
2022-10-31T07:09:32.294Z,11.57
2022-10-31T07:14:59.123Z,13.73
2022-10-31T07:20:22.279Z,12.43
2022-10-31T07:25:47.581Z,11.33
2022-10-31T07:31:15.487Z,12.23
2022-10-31T07:36:38.696Z,12.57
2022-10-31T07:42:05.601Z,11.97
2022-10-31T07:47:29.664Z,12.20
2022-10-31T07:53:12.550Z,12.67
2022-10-31T07:59:07.389Z,12.53
2022-10-31T08:04:31.270Z,13.17
2022-10-31T08:10:12.690Z,14.30
2022-10-31T08:15:40.774Z,13.90
2022-10-31T08:21:04.980Z,14.50
2022-10-31T08:26:28.113Z,14.10
2022-10-31T08:31:54.074Z,13.60
2022-10-31T08:37:43.387Z,13.63
2022-10-31T08:43:08.033Z,14.63
2022-10-31T08:48:33.028Z,13.97
2022-10-31T08:53:57.748Z,12.97
2022-10-31T08:59:29.524Z,11.97
2022-10-31T09:05:34.329Z,13.63
2022-10-31T09:10:58.317Z,13.77
2022-10-31T09:16:41.317Z,12.60
2022-10-31T09:22:12.609Z,13.60
2022-10-31T09:27:36.151Z,13.23
2022-10-31T09:33:00.396Z,12.13
2022-10-31T09:38:24.973Z,10.93
2022-10-31T09:43:54.165Z,12.43
2022-10-31T09:49:33.464Z,11.63
2022-10-31T09:55:00.745Z,11.70
2022-10-31T10:00:24.571Z,8.90
2022-10-31T10:05:53.417Z,10.30
2022-10-31T10:11:38.272Z,6.87
2022-10-31T10:17:22.552Z,6.90
2022-10-31T10:22:53.460Z,9.30
2022-10-31T10:28:22.659Z,8.23
2022-10-31T10:33:53.138Z,6.77
2022-10-31T10:39:18.943Z,7.50
2022-10-31T10:45:05.738Z,8.53
2022-10-31T10:50:56.174Z,8.50
2022-10-31T10:56:20.458Z,7.23
2022-10-31T11:01:45.531Z,6.57
2022-10-31T11:07:11.008Z,6.80
2022-10-31T11:12:35.543Z,6.67
2022-10-31T11:18:02.813Z,6.33
2022-10-31T11:23:33.480Z,6.00
2022-10-31T11:29:00.831Z,3.72
2022-10-31T11:34:30.921Z,3.40
2022-10-31T11:39:55.945Z,2.97
2022-10-31T11:45:21.134Z,2.42
2022-10-31T11:50:51.267Z,2.80
2022-10-31T11:56:16.019Z,2.55
2022-10-31T12:01:45.002Z,2.60
2022-10-31T12:07:09.995Z,4.10
2022-10-31T12:13:03.125Z,5.00
2022-10-31T12:18:39.153Z,3.67
2022-10-31T12:24:13.089Z,4.40
2022-10-31T12:29:50.416Z,4.70
2022-10-31T12:35:27.615Z,5.18
2022-10-31T12:41:07.515Z,5.32
2022-10-31T12:46:43.268Z,4.87
2022-10-31T12:52:16.409Z,7.65
2022-10-31T12:57:44.576Z,5.75
2022-10-31T13:03:25.469Z,6.80
2022-10-31T13:08:51.964Z,7.13
2022-10-31T13:14:23.111Z,7.18
2022-10-31T13:19:47.188Z,8.03
2022-10-31T13:25:14.051Z,9.65
2022-10-31T13:30:40.475Z,6.95
2022-10-31T13:36:13.227Z,7.97
2022-10-31T13:41:44.727Z,8.15
2022-10-31T13:47:24.146Z,8.93
2022-10-31T13:52:48.649Z,7.10
2022-10-31T13:58:24.451Z,6.43
2022-10-31T14:04:06.261Z,7.63
2022-10-31T14:09:35.211Z,9.27
2022-10-31T14:15:01.553Z,9.73
2022-10-31T14:20:34.549Z,9.40
2022-10-31T14:26:33.766Z,7.93
2022-10-31T14:31:59.619Z,7.65
2022-10-31T14:37:43.054Z,7.43
2022-10-31T14:43:28.492Z,4.40
2022-10-31T14:49:25.768Z,4.97
2022-10-31T14:54:56.037Z,5.37
2022-10-31T15:00:21.186Z,6.53
2022-10-31T15:05:49.254Z,6.47
2022-10-31T15:11:15.686Z,8.83
2022-10-31T15:16:41.840Z,7.50
2022-10-31T15:22:07.115Z,9.30
2022-10-31T15:27:42.115Z,9.93
2022-10-31T15:33:08.082Z,11.57
2022-10-31T15:38:31.662Z,9.13
2022-10-31T15:43:56.626Z,8.80
2022-10-31T15:49:31.880Z,9.63
2022-10-31T15:54:58.750Z,9.53
2022-10-31T16:00:31.891Z,10.03
2022-10-31T16:05:56.722Z,8.00
2022-10-31T16:11:24.893Z,8.97
2022-10-31T16:16:52.976Z,7.63
2022-10-31T16:22:22.871Z,6.93
2022-10-31T16:27:54.273Z,8.50
2022-10-31T16:33:29.824Z,7.83
2022-10-31T16:38:52.832Z,7.73
2022-10-31T16:44:21.961Z,9.47
2022-10-31T16:49:49.520Z,8.40
2022-10-31T16:55:14.261Z,8.50
2022-10-31T17:00:38.204Z,8.70
2022-10-31T17:06:02.675Z,11.00
2022-10-31T17:11:27.575Z,7.23
2022-10-31T17:16:50.700Z,8.97
2022-10-31T17:22:16.290Z,8.83
2022-10-31T17:27:42.194Z,8.77
2022-10-31T17:33:06.615Z,8.67
2022-10-31T17:38:31.081Z,8.87
2022-10-31T17:43:56.395Z,7.93
2022-10-31T17:49:19.497Z,8.20
2022-10-31T17:54:43.890Z,8.13
2022-10-31T18:00:09.464Z,8.70
2022-10-31T18:05:34.506Z,7.27
2022-10-31T18:11:00.063Z,9.17
2022-10-31T18:16:23.189Z,9.60
2022-10-31T18:21:46.727Z,10.20
2022-10-31T18:27:11.114Z,9.77
2022-10-31T18:32:34.554Z,9.00
2022-10-31T18:38:00.674Z,10.33
2022-10-31T18:43:27.820Z,10.70
2022-10-31T18:48:51.078Z,9.57
2022-10-31T18:54:14.274Z,10.67
2022-10-31T18:59:38.695Z,12.40
2022-10-31T19:05:01.761Z,10.37
2022-10-31T19:10:24.865Z,10.23
2022-10-31T19:15:49.243Z,12.17
2022-10-31T19:21:14.142Z,13.93
2022-10-31T19:26:37.205Z,11.83
2022-10-31T19:32:01.604Z,11.57
2022-10-31T19:37:24.724Z,11.03
2022-10-31T19:42:47.998Z,12.77
2022-10-31T19:48:12.443Z,10.63
2022-10-31T19:53:35.997Z,10.17
2022-10-31T19:59:00.531Z,10.97
2022-10-31T20:04:25.050Z,11.87
2022-10-31T20:09:48.263Z,11.87
2022-10-31T20:15:11.548Z,11.63
2022-10-31T20:20:35.933Z,9.73
2022-10-31T20:25:59.040Z,10.63
2022-10-31T20:31:23.648Z,10.43
2022-10-31T20:36:48.308Z,10.57
2022-10-31T20:42:11.343Z,9.37
2022-10-31T20:47:34.381Z,9.33
2022-10-31T20:52:59.040Z,9.57
2022-10-31T20:58:22.245Z,9.97
2022-10-31T21:03:45.720Z,9.77
2022-10-31T21:09:10.232Z,8.60
2022-10-31T21:14:33.378Z,7.90
2022-10-31T21:19:58.664Z,8.20
2022-10-31T21:25:23.125Z,7.37
2022-10-31T21:30:48.225Z,6.37
2022-10-31T21:36:12.441Z,5.93
2022-10-31T21:41:37.112Z,5.40
2022-10-31T21:47:00.146Z,5.37
2022-10-31T21:52:23.179Z,4.73
2022-10-31T21:57:47.617Z,5.33
2022-10-31T22:03:10.671Z,4.10
2022-10-31T22:08:33.965Z,4.10
2022-10-31T22:14:00.570Z,4.00
2022-10-31T22:19:23.629Z,4.47
2022-10-31T22:24:46.762Z,4.37
2022-10-31T22:30:12.510Z,3.40
2022-10-31T22:35:35.606Z,3.70
2022-10-31T22:41:00.769Z,4.40
2022-10-31T22:46:28.962Z,4.43
2022-10-31T22:51:52.276Z,4.57
2022-10-31T22:57:15.262Z,4.00
2022-10-31T23:02:39.669Z,3.90
2022-10-31T23:08:03.028Z,5.00
2022-10-31T23:13:44.074Z,3.93
2022-10-31T23:19:09.210Z,3.40
2022-10-31T23:24:34.590Z,4.17
2022-10-31T23:29:59.304Z,3.27
2022-10-31T23:35:24.827Z,4.10
2022-10-31T23:40:47.919Z,3.20
2022-10-31T23:46:10.982Z,4.00
2022-10-31T23:51:35.341Z,4.47
2022-10-31T23:56:59.049Z,3.60
